Time;durP1;ratioP1;P1;durP2;ratioP2;P2;SDS_P1;SDS_P2;PMS_P1;PMS_P2;Temp;Humidity;BMP_temperature;BMP_pressure;BME280_temperature;BME280_humidity;BME280_pressure;Samples;Min_cycle;Max_cycle;Signal;HPM_P1;HPM_P2
2021/06/28 00:04:48;;;;;;;6.30;5.70;;;19.50;81.00;;;;;;10369510;28;20193;-29
2021/06/28 00:10:15;;;;;;;6.30;5.73;;;19.50;81.10;;;;;;10369852;28;20211;-30
2021/06/28 00:15:38;;;;;;;6.67;5.97;;;19.40;81.50;;;;;;10370019;28;20190;-31
2021/06/28 00:21:00;;;;;;;7.13;5.73;;;19.30;81.70;;;;;;10356350;28;20582;-30
2021/06/28 00:26:24;;;;;;;6.73;6.03;;;19.40;82.00;;;;;;10342893;28;20301;-29
2021/06/28 00:31:46;;;;;;;6.10;5.57;;;19.30;82.20;;;;;;10366504;28;20574;-29
2021/06/28 00:37:08;;;;;;;6.73;5.37;;;19.30;82.10;;;;;;10310607;28;20211;-29
2021/06/28 00:42:32;;;;;;;5.80;5.30;;;19.20;81.90;;;;;;10334288;28;20214;-31
2021/06/28 00:47:55;;;;;;;6.27;5.67;;;19.10;81.80;;;;;;10335718;28;20614;-30
2021/06/28 00:53:19;;;;;;;6.00;5.43;;;19.10;81.80;;;;;;10328373;28;20202;-29
2021/06/28 00:58:44;;;;;;;6.77;5.93;;;19.10;81.90;;;;;;10327891;28;20238;-30
2021/06/28 01:04:06;;;;;;;6.17;5.57;;;19.10;82.00;;;;;;10328511;28;20203;-30
2021/06/28 01:09:29;;;;;;;6.70;6.03;;;19.10;82.00;;;;;;10301982;28;20224;-31
2021/06/28 01:14:53;;;;;;;6.03;5.50;;;19.00;82.10;;;;;;10296105;28;20561;-30
2021/06/28 01:20:17;;;;;;;7.83;6.03;;;19.00;82.10;;;;;;10308904;28;20222;-31
2021/06/28 01:25:40;;;;;;;6.47;5.87;;;19.00;81.70;;;;;;10309724;28;20210;-30
2021/06/28 01:31:07;;;;;;;6.63;5.93;;;19.00;81.70;;;;;;10367631;28;20202;-29
2021/06/28 01:36:29;;;;;;;6.27;5.67;;;19.00;81.60;;;;;;10335736;28;20216;-31
2021/06/28 01:41:52;;;;;;;7.00;6.30;;;19.00;81.60;;;;;;10305517;28;20206;-29
2021/06/28 01:47:14;;;;;;;6.90;6.13;;;19.00;81.60;;;;;;10341061;28;20486;-31
2021/06/28 01:52:37;;;;;;;6.80;6.20;;;19.00;81.60;;;;;;10327441;28;20678;-32
2021/06/28 01:58:01;;;;;;;6.63;6.03;;;19.00;81.50;;;;;;10312470;28;20714;-30
2021/06/28 02:03:25;;;;;;;7.50;6.80;;;19.00;81.00;;;;;;10320437;28;20685;-31
2021/06/28 02:08:47;;;;;;;6.67;6.07;;;19.10;81.00;;;;;;10334408;28;20238;-29
2021/06/28 02:14:10;;;;;;;6.77;6.10;;;19.10;80.60;;;;;;10301097;28;20200;-29
2021/06/28 02:19:33;;;;;;;7.67;6.90;;;19.20;80.20;;;;;;10295343;28;20216;-30
2021/06/28 02:24:55;;;;;;;7.40;6.70;;;19.30;80.10;;;;;;10368617;28;20209;-31
2021/06/28 02:30:19;;;;;;;8.37;6.87;;;19.30;80.00;;;;;;10369579;28;20225;-29
2021/06/28 02:35:41;;;;;;;8.00;7.20;;;19.40;79.80;;;;;;10377084;28;20194;-30
2021/06/28 02:41:04;;;;;;;7.73;6.93;;;19.40;80.10;;;;;;10413308;28;20201;-29
2021/06/28 02:46:29;;;;;;;8.07;7.07;;;19.40;80.00;;;;;;10413190;28;20213;-30
2021/06/28 02:51:51;;;;;;;7.17;6.47;;;19.40;80.60;;;;;;10371882;28;20689;-29
2021/06/28 02:57:13;;;;;;;7.37;6.60;;;19.30;80.10;;;;;;10372847;28;20594;-30
2021/06/28 03:02:37;;;;;;;7.17;6.57;;;19.30;79.90;;;;;;10372365;28;20199;-28
2021/06/28 03:07:59;;;;;;;7.90;6.87;;;19.40;79.70;;;;;;10370531;28;20601;-29
2021/06/28 03:13:21;;;;;;;8.23;6.90;;;19.40;79.60;;;;;;10344718;28;20202;-31
2021/06/28 03:18:45;;;;;;;7.13;6.50;;;19.40;79.50;;;;;;10372244;28;20213;-30
2021/06/28 03:24:08;;;;;;;7.93;7.00;;;19.40;79.30;;;;;;10343278;28;20669;-30
2021/06/28 03:29:30;;;;;;;8.37;7.00;;;19.50;79.10;;;;;;10335122;28;20230;-32
2021/06/28 03:34:53;;;;;;;7.20;6.60;;;19.50;78.80;;;;;;10329830;28;20199;-30
2021/06/28 03:40:16;;;;;;;8.53;7.67;;;19.50;78.90;;;;;;10330775;28;20221;-30
2021/06/28 03:45:39;;;;;;;7.67;6.97;;;19.60;78.50;;;;;;10330467;28;20273;-30
2021/06/28 03:51:03;;;;;;;9.40;8.03;;;19.50;78.50;;;;;;10325745;28;20184;-29
2021/06/28 03:56:25;;;;;;;7.83;7.03;;;19.50;78.30;;;;;;10321040;28;20233;-32
2021/06/28 04:01:47;;;;;;;8.17;6.80;;;19.50;78.70;;;;;;10329205;28;20203;-30
2021/06/28 04:07:10;;;;;;;7.13;6.47;;;19.60;78.10;;;;;;10329798;28;20227;-31
2021/06/28 04:12:33;;;;;;;8.53;7.03;;;19.60;78.20;;;;;;10329279;28;20202;-28
2021/06/28 04:17:55;;;;;;;7.43;6.73;;;19.60;77.70;;;;;;10329305;28;20218;-31
2021/06/28 04:23:19;;;;;;;7.53;6.70;;;19.60;77.10;;;;;;10326060;28;20221;-28
2021/06/28 04:28:41;;;;;;;7.37;6.63;;;19.60;77.30;;;;;;10353084;28;20221;-30
2021/06/28 04:34:03;;;;;;;7.73;6.53;;;19.70;77.20;;;;;;10368710;28;20202;-30
2021/06/28 04:39:27;;;;;;;7.57;6.80;;;19.70;77.20;;;;;;10369132;28;20221;-30
2021/06/28 04:44:49;;;;;;;7.00;6.30;;;19.70;77.30;;;;;;10370408;28;20692;-29
2021/06/28 04:50:13;;;;;;;7.70;7.00;;;19.70;77.30;;;;;;10375250;28;20240;-30
2021/06/28 04:55:36;;;;;;;7.43;6.73;;;19.70;77.80;;;;;;10372907;28;20700;-30
2021/06/28 05:00:59;;;;;;;6.93;6.23;;;19.60;77.40;;;;;;10376301;28;20270;-31
2021/06/28 05:06:21;;;;;;;7.20;6.60;;;19.70;77.20;;;;;;10373372;28;20218;-30
2021/06/28 05:11:44;;;;;;;7.33;6.63;;;19.70;77.20;;;;;;10374467;28;20198;-31
2021/06/28 05:17:06;;;;;;;6.30;5.70;;;19.70;77.70;;;;;;10376059;28;20217;-30
2021/06/28 05:22:30;;;;;;;7.53;6.73;;;19.70;77.50;;;;;;10370378;28;20225;-30
2021/06/28 05:27:53;;;;;;;7.17;6.47;;;19.70;77.40;;;;;;10375991;28;20304;-31
2021/06/28 05:33:15;;;;;;;7.40;6.63;;;19.70;77.20;;;;;;10374889;28;20198;-30
2021/06/28 05:38:37;;;;;;;7.10;6.40;;;19.80;76.90;;;;;;10375456;28;20589;-30
2021/06/28 05:44:01;;;;;;;7.63;5.80;;;19.80;76.70;;;;;;10374638;28;20573;-30
2021/06/28 05:49:23;;;;;;;7.60;6.40;;;19.80;76.70;;;;;;10360207;28;20237;-30
2021/06/28 05:54:45;;;;;;;6.60;6.00;;;19.80;76.50;;;;;;10371512;28;20233;-29
2021/06/28 06:00:11;;;;;;;6.43;5.83;;;19.80;76.20;;;;;;10374154;28;20220;-29
2021/06/28 06:05:34;;;;;;;6.47;5.87;;;19.80;76.50;;;;;;10362278;28;20930;-28
2021/06/28 06:10:57;;;;;;;6.60;5.90;;;19.80;76.70;;;;;;10364825;28;20218;-31
2021/06/28 06:16:20;;;;;;;6.70;6.03;;;19.80;77.10;;;;;;10372440;28;20680;-29
2021/06/28 06:21:43;;;;;;;7.13;6.43;;;19.80;76.90;;;;;;10352617;28;20712;-29
2021/06/28 06:27:06;;;;;;;7.13;6.40;;;19.80;76.80;;;;;;10373608;28;20230;-31
2021/06/28 06:32:30;;;;;;;7.30;6.53;;;19.90;76.70;;;;;;10328462;28;20214;-29
2021/06/28 06:37:55;;;;;;;6.57;5.97;;;19.90;76.50;;;;;;10303664;28;20223;-30
2021/06/28 06:43:18;;;;;;;8.17;6.47;;;20.00;77.00;;;;;;10344238;28;20281;-29
2021/06/28 06:48:41;;;;;;;9.77;6.53;;;20.00;76.80;;;;;;10360417;28;20226;-30
2021/06/28 06:54:04;;;;;;;7.37;6.27;;;20.00;76.70;;;;;;10292112;28;20207;-29
2021/06/28 06:59:26;;;;;;;7.37;6.53;;;20.00;76.90;;;;;;10303254;28;20227;-30
2021/06/28 07:04:49;;;;;;;7.27;6.60;;;20.00;76.60;;;;;;10291286;28;20203;-31
2021/06/28 07:10:13;;;;;;;7.27;6.43;;;20.10;76.50;;;;;;10310249;28;20738;-30
2021/06/28 07:15:36;;;;;;;8.87;7.10;;;20.10;76.20;;;;;;10331676;28;20229;-29
2021/06/28 07:20:59;;;;;;;7.10;6.40;;;20.20;76.20;;;;;;10343768;28;20213;-31
2021/06/28 07:26:24;;;;;;;7.07;6.43;;;20.20;76.30;;;;;;10368320;28;20230;-33
2021/06/28 07:31:46;;;;;;;7.67;6.17;;;20.20;76.80;;;;;;10367826;28;20201;-29
2021/06/28 07:37:10;;;;;;;6.30;5.70;;;20.10;77.60;;;;;;10371396;28;20214;-31
2021/06/28 07:42:32;;;;;;;8.07;6.03;;;20.10;77.70;;;;;;10369243;28;20199;-32
2021/06/28 07:47:54;;;;;;;7.00;6.00;;;20.10;78.00;;;;;;10370609;28;20214;-31
2021/06/28 07:53:18;;;;;;;7.43;5.73;;;20.10;78.10;;;;;;10364907;28;20195;-31
2021/06/28 07:58:41;;;;;;;6.77;6.07;;;20.10;77.80;;;;;;10370191;28;20214;-29
2021/06/28 08:04:03;;;;;;;7.17;6.43;;;20.10;77.80;;;;;;10370111;28;20191;-33
2021/06/28 08:09:27;;;;;;;6.40;5.80;;;20.10;77.90;;;;;;10370414;28;20241;-31
2021/06/28 08:14:49;;;;;;;7.27;5.87;;;20.10;78.10;;;;;;10370557;28;20581;-30
2021/06/28 08:20:12;;;;;;;6.93;6.23;;;20.10;78.20;;;;;;10369601;28;20222;-32
2021/06/28 08:25:36;;;;;;;6.67;6.00;;;20.10;78.30;;;;;;10370680;28;20193;-32
2021/06/28 08:30:59;;;;;;;6.40;5.80;;;20.10;78.40;;;;;;10299858;28;20228;-32
2021/06/28 08:36:21;;;;;;;6.80;6.10;;;20.10;78.30;;;;;;10328473;28;20221;-30
2021/06/28 08:41:48;;;;;;;8.10;5.80;;;20.10;78.30;;;;;;10318474;28;20196;-31
2021/06/28 08:47:11;;;;;;;6.40;5.80;;;20.10;78.50;;;;;;10307669;28;20595;-30
2021/06/28 08:52:36;;;;;;;7.57;5.83;;;20.10;78.50;;;;;;10329754;28;20199;-32
2021/06/28 08:58:00;;;;;;;7.63;6.07;;;20.10;78.50;;;;;;10327773;28;20568;-31
2021/06/28 09:03:22;;;;;;;6.70;6.10;;;20.10;78.30;;;;;;10327037;28;20203;-30
2021/06/28 09:08:55;;;;;;;6.60;6.00;;;20.20;78.00;;;;;;10327448;28;20227;-30
2021/06/28 09:14:24;;;;;;;6.40;5.80;;;20.30;77.80;;;;;;10328687;28;20206;-29
2021/06/28 09:20:15;;;;;;;5.17;4.77;;;20.30;77.80;;;;;;10326797;28;20955;-30
2021/06/28 09:25:38;;;;;;;5.57;5.07;;;20.40;77.20;;;;;;10311238;28;20210;-31
2021/06/28 09:31:00;;;;;;;6.00;5.40;;;20.30;77.30;;;;;;10312261;28;20227;-30
2021/06/28 09:36:24;;;;;;;5.23;4.33;;;20.40;77.40;;;;;;10333332;28;20226;-30
2021/06/28 09:41:46;;;;;;;4.50;4.07;;;20.40;77.20;;;;;;10333211;28;20195;-30
2021/06/28 09:47:11;;;;;;;4.40;4.00;;;20.40;76.00;;;;;;10334661;28;20215;-30
2021/06/28 09:52:37;;;;;;;4.67;4.03;;;20.50;74.30;;;;;;10326428;28;20195;-30
2021/06/28 09:58:07;;;;;;;4.20;3.83;;;20.50;73.00;;;;;;10332339;28;20218;-32
2021/06/28 10:03:33;;;;;;;5.40;3.87;;;20.60;73.80;;;;;;10317498;28;20290;-31
2021/06/28 10:09:06;;;;;;;4.87;4.20;;;20.50;74.30;;;;;;10319219;28;20223;-33
2021/06/28 10:14:28;;;;;;;4.30;3.73;;;20.60;73.50;;;;;;10333141;28;20279;-31
2021/06/28 10:19:50;;;;;;;5.13;3.57;;;20.60;73.70;;;;;;10333409;28;20207;-31
2021/06/28 10:25:16;;;;;;;4.50;4.10;;;20.60;74.10;;;;;;10332076;28;20210;-31
2021/06/28 10:30:38;;;;;;;5.13;4.03;;;20.60;74.00;;;;;;10304119;28;20725;-31
2021/06/28 10:36:04;;;;;;;6.47;4.10;;;20.60;74.20;;;;;;10298108;28;20238;-31
2021/06/28 10:41:39;;;;;;;4.47;4.07;;;20.60;73.50;;;;;;10330122;28;20249;-33
2021/06/28 10:47:09;;;;;;;4.20;3.80;;;20.70;72.70;;;;;;10329351;28;20231;-34
2021/06/28 10:52:48;;;;;;;4.10;3.77;;;20.70;73.40;;;;;;10332282;28;20190;-30
2021/06/28 10:58:29;;;;;;;4.27;3.20;;;20.60;73.40;;;;;;10330463;28;20286;-31
2021/06/28 11:04:05;;;;;;;4.33;3.90;;;20.70;71.10;;;;;;10330636;28;20191;-32
2021/06/28 11:09:35;;;;;;;5.27;3.83;;;20.70;72.10;;;;;;10331133;28;20223;-33
2021/06/28 11:15:01;;;;;;;4.40;3.80;;;20.70;72.30;;;;;;10331058;28;20207;-31
2021/06/28 11:20:28;;;;;;;4.23;3.80;;;20.70;72.60;;;;;;10331391;28;20307;-31
2021/06/28 11:25:52;;;;;;;5.57;3.67;;;20.70;72.90;;;;;;10331094;28;20210;-30
2021/06/28 11:31:28;;;;;;;5.90;3.63;;;20.70;73.00;;;;;;10323108;28;20226;-32
2021/06/28 11:37:01;;;;;;;5.70;4.53;;;20.70;71.90;;;;;;10318862;28;20298;-32
2021/06/28 11:42:30;;;;;;;4.60;3.70;;;20.70;72.20;;;;;;10331000;28;20547;-33
2021/06/28 11:48:30;;;;;;;3.87;3.47;;;20.70;72.10;;;;;;10329919;28;20223;-29
2021/06/28 11:53:56;;;;;;;6.17;4.07;;;20.80;69.60;;;;;;10333408;28;20203;-31
2021/06/28 11:59:20;;;;;;;8.63;4.30;;;20.80;71.40;;;;;;10340271;28;20226;-28
2021/06/28 12:04:44;;;;;;;4.93;4.30;;;20.70;71.60;;;;;;10350416;28;20586;-32
2021/06/28 12:10:06;;;;;;;4.27;3.87;;;20.70;71.90;;;;;;10328561;28;20219;-31
2021/06/28 12:15:30;;;;;;;5.17;4.03;;;20.70;72.30;;;;;;10330370;28;20210;-29
2021/06/28 12:20:58;;;;;;;4.60;4.20;;;20.70;72.40;;;;;;10330621;28;20574;-31
2021/06/28 12:26:20;;;;;;;3.97;3.57;;;20.70;72.50;;;;;;10329540;28;20234;-31
2021/06/28 12:31:42;;;;;;;6.43;4.50;;;20.70;72.90;;;;;;10329062;28;20237;-30
2021/06/28 12:37:07;;;;;;;7.97;4.70;;;20.70;73.00;;;;;;10334098;28;20626;-30
2021/06/28 12:42:29;;;;;;;5.33;4.83;;;20.70;73.20;;;;;;10370810;28;20682;-31
2021/06/28 12:47:54;;;;;;;5.40;4.90;;;20.70;73.20;;;;;;10370032;28;20222;-31
2021/06/28 12:53:18;;;;;;;5.27;4.60;;;20.70;73.90;;;;;;10367996;28;20197;-30
2021/06/28 12:58:43;;;;;;;5.60;5.00;;;20.70;73.70;;;;;;10369328;28;20205;-30
2021/06/28 13:04:14;;;;;;;5.00;4.60;;;20.70;73.80;;;;;;10369272;28;20277;-30
2021/06/28 13:09:38;;;;;;;6.70;5.37;;;20.70;73.70;;;;;;10370423;28;20226;-30
2021/06/28 13:15:22;;;;;;;5.47;5.07;;;20.70;74.00;;;;;;10375843;28;20680;-32
2021/06/28 13:20:44;;;;;;;5.63;5.13;;;20.70;73.80;;;;;;10377166;28;20182;-30
2021/06/28 13:26:12;;;;;;;8.77;5.63;;;20.70;73.90;;;;;;10335974;28;20225;-30
2021/06/28 13:31:55;;;;;;;5.13;4.63;;;20.70;73.80;;;;;;10335851;28;20305;-29
2021/06/28 13:37:19;;;;;;;5.37;4.97;;;20.80;73.70;;;;;;10348642;28;20292;-31
2021/06/28 13:42:52;;;;;;;5.00;4.53;;;20.70;73.60;;;;;;10374380;28;20206;-32
2021/06/28 13:48:15;;;;;;;5.57;5.07;;;20.70;73.70;;;;;;10367413;28;20214;-30
2021/06/28 13:53:37;;;;;;;5.47;4.67;;;20.70;74.10;;;;;;10375538;28;20203;-30
2021/06/28 13:59:01;;;;;;;5.20;4.70;;;20.70;74.50;;;;;;10370040;28;20594;-31
2021/06/28 14:04:23;;;;;;;6.67;4.80;;;20.70;74.10;;;;;;10374595;28;20198;-29
2021/06/28 14:09:45;;;;;;;5.07;4.67;;;20.80;74.40;;;;;;10371237;28;20229;-30
2021/06/28 14:15:12;;;;;;;5.57;4.93;;;20.70;74.40;;;;;;10376984;28;20197;-32
2021/06/28 14:20:34;;;;;;;5.13;4.63;;;20.70;74.00;;;;;;10401401;28;20198;-33
2021/06/28 14:25:56;;;;;;;5.27;4.87;;;20.70;74.30;;;;;;10368905;28;20233;-30
2021/06/28 14:31:20;;;;;;;8.17;5.13;;;20.70;74.30;;;;;;10331925;28;20229;-34
2021/06/28 14:36:42;;;;;;;6.43;4.80;;;20.70;74.30;;;;;;10332399;28;20226;-31
2021/06/28 14:42:05;;;;;;;5.60;5.13;;;20.70;74.30;;;;;;10332331;28;20318;-30
2021/06/28 14:47:29;;;;;;;5.37;4.97;;;20.70;74.80;;;;;;10332118;28;20230;-32
2021/06/28 14:52:51;;;;;;;5.97;5.13;;;20.70;74.50;;;;;;10337382;28;20586;-34
2021/06/28 14:58:13;;;;;;;5.57;4.83;;;20.70;74.90;;;;;;10335667;28;20222;-32
2021/06/28 15:03:37;;;;;;;5.40;5.00;;;20.70;74.70;;;;;;10337621;28;20207;-32
2021/06/28 15:08:59;;;;;;;5.13;4.73;;;20.60;74.60;;;;;;10328299;28;20230;-32
2021/06/28 15:14:21;;;;;;;5.97;5.37;;;20.70;74.80;;;;;;10334315;28;20693;-34
2021/06/28 15:19:44;;;;;;;8.53;5.50;;;20.70;74.80;;;;;;10333427;28;20207;-30
2021/06/28 15:25:07;;;;;;;8.23;4.60;;;20.70;74.90;;;;;;10330806;28;20697;-31
2021/06/28 15:30:31;;;;;;;5.30;4.80;;;20.60;74.90;;;;;;10338566;28;20235;-30
2021/06/28 15:36:21;;;;;;;5.30;4.90;;;20.60;74.90;;;;;;10306419;28;20784;-30
2021/06/28 15:41:44;;;;;;;5.80;5.30;;;20.60;75.20;;;;;;10333233;28;20203;-31
2021/06/28 15:47:06;;;;;;;5.73;5.10;;;20.60;75.30;;;;;;10302510;28;20729;-30
2021/06/28 15:52:29;;;;;;;5.80;5.20;;;20.60;75.70;;;;;;10324518;28;20223;-32
2021/06/28 15:57:51;;;;;;;5.07;4.67;;;20.60;75.50;;;;;;10363877;28;20219;-32
2021/06/28 16:03:14;;;;;;;5.33;4.73;;;20.60;75.70;;;;;;10329027;28;20191;-30
2021/06/28 16:08:37;;;;;;;4.57;4.17;;;20.60;75.90;;;;;;10312628;28;20231;-31
2021/06/28 16:13:59;;;;;;;5.07;4.67;;;20.60;76.20;;;;;;10324727;28;20210;-31
2021/06/28 16:19:21;;;;;;;4.97;4.47;;;20.60;76.30;;;;;;10340743;28;20241;-29
2021/06/28 16:24:45;;;;;;;5.23;4.73;;;20.60;76.20;;;;;;10289235;28;20192;-31
2021/06/28 16:30:09;;;;;;;5.13;4.60;;;20.50;76.30;;;;;;10324762;28;20234;-30
2021/06/28 16:35:31;;;;;;;4.50;4.07;;;20.50;76.40;;;;;;10328301;28;20207;-30
2021/06/28 16:40:54;;;;;;;4.77;4.27;;;20.50;76.60;;;;;;10326851;28;20583;-30
2021/06/28 16:46:16;;;;;;;5.73;4.30;;;20.50;76.60;;;;;;10330035;28;20234;-30
2021/06/28 16:51:38;;;;;;;4.80;4.27;;;20.50;76.80;;;;;;10336066;28;20587;-30
2021/06/28 16:57:02;;;;;;;4.50;4.20;;;20.50;76.90;;;;;;10335825;28;20215;-31
2021/06/28 17:02:24;;;;;;;5.30;4.20;;;20.50;77.00;;;;;;10335828;28;20562;-30
2021/06/28 17:07:46;;;;;;;5.03;4.57;;;20.50;77.20;;;;;;10336446;28;20230;-30
2021/06/28 17:13:09;;;;;;;4.53;4.13;;;20.50;77.10;;;;;;10320518;28;20226;-30
2021/06/28 17:18:32;;;;;;;4.53;4.13;;;20.50;77.10;;;;;;10326900;28;20231;-30
2021/06/28 17:23:54;;;;;;;6.07;4.60;;;20.50;77.30;;;;;;10312284;28;20192;-31
2021/06/28 17:29:17;;;;;;;6.83;4.87;;;20.50;77.40;;;;;;10322636;28;20231;-31
2021/06/28 17:34:39;;;;;;;5.03;4.63;;;20.50;77.40;;;;;;10332796;28;20199;-31
2021/06/28 17:40:04;;;;;;;5.07;4.67;;;20.50;77.40;;;;;;10334847;28;20349;-30
2021/06/28 17:45:27;;;;;;;4.60;4.00;;;20.50;77.60;;;;;;10334592;28;20570;-30
2021/06/28 17:50:49;;;;;;;5.27;4.77;;;20.50;77.60;;;;;;10328173;28;20220;-30
2021/06/28 17:56:17;;;;;;;4.80;4.40;;;20.50;77.70;;;;;;10304987;28;20219;-31
2021/06/28 18:01:41;;;;;;;5.10;4.60;;;20.50;77.90;;;;;;10318387;28;20205;-32
2021/06/28 18:07:04;;;;;;;5.00;4.60;;;20.50;77.80;;;;;;10334620;28;20606;-30
2021/06/28 18:12:26;;;;;;;5.33;4.60;;;20.50;77.90;;;;;;10334215;28;20271;-30
2021/06/28 18:17:50;;;;;;;5.10;4.70;;;20.40;77.80;;;;;;10322348;28;20219;-32
2021/06/28 18:23:12;;;;;;;4.73;4.33;;;20.50;78.20;;;;;;10328340;28;20191;-31
2021/06/28 18:28:34;;;;;;;4.87;4.47;;;20.50;78.00;;;;;;10328163;28;20607;-30
2021/06/28 18:33:58;;;;;;;4.80;4.40;;;20.50;78.10;;;;;;10326360;28;20578;-31
2021/06/28 18:39:20;;;;;;;4.60;4.20;;;20.50;78.10;;;;;;10298496;28;20227;-31
2021/06/28 18:44:42;;;;;;;4.73;4.33;;;20.50;78.20;;;;;;10327018;28;20210;-31
2021/06/28 18:50:07;;;;;;;4.80;4.40;;;20.50;78.10;;;;;;10326277;28;20223;-30
2021/06/28 18:55:29;;;;;;;5.30;4.80;;;20.50;78.10;;;;;;10327337;28;20213;-30
2021/06/28 19:00:52;;;;;;;5.13;4.73;;;20.50;78.10;;;;;;10412903;22;20232;-27
2021/06/28 19:06:15;;;;;;;4.70;4.30;;;20.50;78.20;;;;;;10447317;28;20786;-27
2021/06/28 19:11:38;;;;;;;4.57;4.17;;;20.50;78.30;;;;;;10451155;28;20217;-27
2021/06/28 19:17:00;;;;;;;4.97;4.57;;;20.50;78.30;;;;;;10420079;28;20570;-28
2021/06/28 19:22:24;;;;;;;5.23;4.83;;;20.50;78.40;;;;;;10445790;28;20227;-27
2021/06/28 19:27:46;;;;;;;5.27;4.67;;;20.50;78.40;;;;;;10429710;28;20193;-27
2021/06/28 19:33:08;;;;;;;5.40;5.00;;;20.50;78.40;;;;;;10438148;28;20696;-27
2021/06/28 19:38:32;;;;;;;5.10;4.60;;;20.50;78.50;;;;;;10451442;28;20221;-28
2021/06/28 19:43:54;;;;;;;5.20;4.70;;;20.50;78.50;;;;;;10432377;28;20200;-27
2021/06/28 19:49:16;;;;;;;5.57;4.73;;;20.50;78.70;;;;;;10451330;28;20216;-29
2021/06/28 19:54:40;;;;;;;5.33;4.93;;;20.50;78.70;;;;;;10451828;28;20201;-27
2021/06/28 20:00:03;;;;;;;5.60;5.10;;;20.50;78.70;;;;;;10451675;28;20217;-27
2021/06/28 20:05:26;;;;;;;5.60;5.10;;;20.50;78.80;;;;;;10452034;28;20572;-28
2021/06/28 20:10:49;;;;;;;5.47;4.97;;;20.50;78.70;;;;;;10451858;28;20228;-28
2021/06/28 20:16:17;;;;;;;5.23;4.73;;;20.50;78.80;;;;;;10450661;28;20668;-27
2021/06/28 20:21:39;;;;;;;4.90;4.50;;;20.50;78.80;;;;;;10447126;28;20209;-27
2021/06/28 20:27:03;;;;;;;5.90;5.40;;;20.50;78.80;;;;;;10451572;28;20197;-27
2021/06/28 20:32:25;;;;;;;5.60;5.10;;;20.50;78.90;;;;;;10451230;28;20223;-28
2021/06/28 20:37:47;;;;;;;5.63;5.13;;;20.50;78.90;;;;;;10451248;28;20196;-26
2021/06/28 20:43:12;;;;;;;6.10;5.50;;;20.50;79.00;;;;;;10450982;28;20193;-26
2021/06/28 20:48:34;;;;;;;6.27;5.77;;;20.50;79.20;;;;;;10450881;28;20219;-28
2021/06/28 20:53:57;;;;;;;6.23;5.63;;;20.50;79.10;;;;;;10450632;28;20592;-29
2021/06/28 20:59:21;;;;;;;5.30;4.90;;;20.50;79.10;;;;;;10450783;28;20240;-27
2021/06/28 21:04:43;;;;;;;6.13;5.63;;;20.50;79.20;;;;;;10450578;28;20193;-28
2021/06/28 21:10:06;;;;;;;6.60;5.90;;;20.50;79.30;;;;;;10449821;28;20910;-26
2021/06/28 21:15:30;;;;;;;6.00;5.50;;;20.50;79.30;;;;;;10449829;28;20580;-27
2021/06/28 21:20:52;;;;;;;5.47;5.03;;;20.50;79.30;;;;;;10423315;28;20228;-28
2021/06/28 21:26:14;;;;;;;6.10;5.43;;;20.50;79.20;;;;;;10447098;28;20197;-27
2021/06/28 21:31:37;;;;;;;5.83;5.33;;;20.50;79.40;;;;;;10452186;28;20739;-28
2021/06/28 21:37:00;;;;;;;5.50;5.00;;;20.50;79.40;;;;;;10431136;28;20603;-27
2021/06/28 21:42:22;;;;;;;5.30;4.90;;;20.50;79.30;;;;;;10456797;28;20715;-26
2021/06/28 21:47:45;;;;;;;5.17;4.77;;;20.50;79.50;;;;;;10449672;28;20197;-28
2021/06/28 21:53:07;;;;;;;5.23;4.83;;;20.50;79.30;;;;;;10456960;28;20213;-27
2021/06/28 21:58:29;;;;;;;5.37;4.87;;;20.50;79.30;;;;;;10457109;28;20225;-27
2021/06/28 22:03:53;;;;;;;5.47;5.03;;;20.50;79.40;;;;;;10445162;28;20200;-27
2021/06/28 22:09:16;;;;;;;5.50;5.00;;;20.50;79.30;;;;;;10435488;28;20232;-27
2021/06/28 22:14:38;;;;;;;4.57;4.20;;;20.50;79.40;;;;;;10424819;28;20197;-27
2021/06/28 22:20:01;;;;;;;4.93;4.53;;;20.50;79.30;;;;;;10419349;28;20215;-27
2021/06/28 22:25:23;;;;;;;4.43;4.13;;;20.50;79.40;;;;;;10414874;28;20209;-26
2021/06/28 22:30:47;;;;;;;5.20;4.80;;;20.50;79.40;;;;;;10378893;28;20222;-27
2021/06/28 22:36:10;;;;;;;5.40;4.90;;;20.50;79.50;;;;;;10392766;28;20202;-27
2021/06/28 22:41:32;;;;;;;5.00;4.50;;;20.50;79.50;;;;;;10373400;28;20593;-26
2021/06/28 22:46:54;;;;;;;4.87;4.37;;;20.50;79.50;;;;;;10373986;28;20202;-27
2021/06/28 22:52:18;;;;;;;4.67;4.27;;;20.50;79.50;;;;;;10373950;28;20218;-27
2021/06/28 22:57:40;;;;;;;5.37;4.90;;;20.50;79.50;;;;;;10372964;28;20207;-27
2021/06/28 23:03:02;;;;;;;4.73;4.33;;;20.50;79.60;;;;;;10373268;28;20199;-27
2021/06/28 23:08:25;;;;;;;5.40;4.90;;;20.50;79.60;;;;;;10380334;28;20218;-26
2021/06/28 23:13:47;;;;;;;5.03;4.63;;;20.50;80.10;;;;;;10410528;28;20222;-27
2021/06/28 23:19:10;;;;;;;4.93;4.53;;;20.50;79.70;;;;;;10412757;28;20221;-27
2021/06/28 23:24:33;;;;;;;4.33;4.03;;;20.50;79.70;;;;;;10372993;28;20254;-28
2021/06/28 23:29:55;;;;;;;4.97;4.57;;;20.50;79.70;;;;;;10412917;28;20225;-27
2021/06/28 23:35:17;;;;;;;5.03;4.63;;;20.50;79.80;;;;;;10371759;28;20202;-27
2021/06/28 23:40:41;;;;;;;4.87;4.47;;;20.50;79.90;;;;;;10387313;28;20222;-27
2021/06/28 23:46:03;;;;;;;5.30;4.80;;;20.50;80.00;;;;;;10411771;28;20193;-26
2021/06/28 23:51:25;;;;;;;5.60;5.10;;;20.50;80.60;;;;;;10405239;28;20276;-27
2021/06/28 23:56:49;;;;;;;5.43;5.03;;;20.50;81.10;;;;;;10371533;28;20194;-27
